sensor_id;sensor_type;location;lat;lon;timestamp;P1;durP1;ratioP1;P2;durP2;ratioP2
33475;SDS011;19814;48.224;11.422;2023-06-04T00:00:25;9.02;;;4.50;;
33475;SDS011;19814;48.224;11.422;2023-06-04T00:02:51;5.93;;;3.33;;
33475;SDS011;19814;48.224;11.422;2023-06-04T00:05:16;6.30;;;3.78;;
33475;SDS011;19814;48.224;11.422;2023-06-04T00:07:42;6.60;;;4.22;;
33475;SDS011;19814;48.224;11.422;2023-06-04T00:10:08;7.07;;;3.58;;
33475;SDS011;19814;48.224;11.422;2023-06-04T00:12:34;6.97;;;3.70;;
33475;SDS011;19814;48.224;11.422;2023-06-04T00:15:00;8.27;;;3.80;;
33475;SDS011;19814;48.224;11.422;2023-06-04T00:17:26;7.32;;;3.30;;
33475;SDS011;19814;48.224;11.422;2023-06-04T00:19:51;7.00;;;3.70;;
33475;SDS011;19814;48.224;11.422;2023-06-04T00:22:17;6.22;;;3.67;;
33475;SDS011;19814;48.224;11.422;2023-06-04T00:24:42;8.05;;;3.95;;
33475;SDS011;19814;48.224;11.422;2023-06-04T00:27:08;9.50;;;4.10;;
33475;SDS011;19814;48.224;11.422;2023-06-04T00:29:34;6.47;;;3.85;;
33475;SDS011;19814;48.224;11.422;2023-06-04T00:32:00;6.47;;;3.85;;
33475;SDS011;19814;48.224;11.422;2023-06-04T00:34:25;8.52;;;4.10;;
33475;SDS011;19814;48.224;11.422;2023-06-04T00:36:51;7.07;;;3.90;;
33475;SDS011;19814;48.224;11.422;2023-06-04T00:39:16;8.20;;;4.40;;
33475;SDS011;19814;48.224;11.422;2023-06-04T00:41:42;7.40;;;3.67;;
33475;SDS011;19814;48.224;11.422;2023-06-04T00:44:07;5.97;;;3.65;;
33475;SDS011;19814;48.224;11.422;2023-06-04T00:46:33;10.55;;;4.28;;
33475;SDS011;19814;48.224;11.422;2023-06-04T00:49:01;6.80;;;3.58;;
33475;SDS011;19814;48.224;11.422;2023-06-04T00:51:26;7.82;;;3.92;;
33475;SDS011;19814;48.224;11.422;2023-06-04T00:53:55;8.13;;;4.15;;
33475;SDS011;19814;48.224;11.422;2023-06-04T00:56:20;7.20;;;3.55;;
33475;SDS011;19814;48.224;11.422;2023-06-04T00:58:46;8.05;;;3.90;;
33475;SDS011;19814;48.224;11.422;2023-06-04T01:01:15;7.30;;;4.07;;
33475;SDS011;19814;48.224;11.422;2023-06-04T01:04:00;6.20;;;3.67;;
33475;SDS011;19814;48.224;11.422;2023-06-04T01:06:39;6.78;;;3.92;;
33475;SDS011;19814;48.224;11.422;2023-06-04T01:09:09;6.07;;;3.78;;
33475;SDS011;19814;48.224;11.422;2023-06-04T01:11:37;7.15;;;3.50;;
33475;SDS011;19814;48.224;11.422;2023-06-04T01:14:04;10.60;;;4.05;;
33475;SDS011;19814;48.224;11.422;2023-06-04T01:16:49;5.43;;;3.38;;
33475;SDS011;19814;48.224;11.422;2023-06-04T01:23:14;6.60;;;3.92;;
33475;SDS011;19814;48.224;11.422;2023-06-04T01:25:18;7.65;;;3.90;;
33475;SDS011;19814;48.224;11.422;2023-06-04T01:27:49;8.13;;;4.00;;
33475;SDS011;19814;48.224;11.422;2023-06-04T01:30:17;8.02;;;4.30;;
33475;SDS011;19814;48.224;11.422;2023-06-04T01:32:45;6.95;;;3.95;;
33475;SDS011;19814;48.224;11.422;2023-06-04T01:35:11;7.57;;;3.63;;
33475;SDS011;19814;48.224;11.422;2023-06-04T01:37:37;7.70;;;3.97;;
33475;SDS011;19814;48.224;11.422;2023-06-04T01:40:03;7.63;;;3.83;;
33475;SDS011;19814;48.224;11.422;2023-06-04T01:42:30;8.60;;;4.18;;
33475;SDS011;19814;48.224;11.422;2023-06-04T01:44:56;9.30;;;4.50;;
33475;SDS011;19814;48.224;11.422;2023-06-04T01:47:21;7.28;;;3.67;;
33475;SDS011;19814;48.224;11.422;2023-06-04T01:49:47;7.57;;;4.47;;
33475;SDS011;19814;48.224;11.422;2023-06-04T01:52:12;7.28;;;4.10;;
33475;SDS011;19814;48.224;11.422;2023-06-04T01:54:38;6.13;;;3.75;;
33475;SDS011;19814;48.224;11.422;2023-06-04T01:57:04;6.50;;;3.58;;
33475;SDS011;19814;48.224;11.422;2023-06-04T01:59:30;6.53;;;4.10;;
33475;SDS011;19814;48.224;11.422;2023-06-04T02:01:57;8.30;;;4.18;;
33475;SDS011;19814;48.224;11.422;2023-06-04T02:04:22;7.15;;;4.30;;
33475;SDS011;19814;48.224;11.422;2023-06-04T02:06:48;6.65;;;3.40;;
33475;SDS011;19814;48.224;11.422;2023-06-04T02:09:15;6.63;;;3.25;;
33475;SDS011;19814;48.224;11.422;2023-06-04T02:11:41;7.40;;;3.95;;
33475;SDS011;19814;48.224;11.422;2023-06-04T02:14:06;7.93;;;3.33;;
33475;SDS011;19814;48.224;11.422;2023-06-04T02:16:32;8.95;;;4.35;;
33475;SDS011;19814;48.224;11.422;2023-06-04T02:18:57;7.50;;;3.95;;
33475;SDS011;19814;48.224;11.422;2023-06-04T02:21:24;8.27;;;4.22;;
33475;SDS011;19814;48.224;11.422;2023-06-04T02:23:49;6.53;;;3.58;;
33475;SDS011;19814;48.224;11.422;2023-06-04T02:26:15;6.90;;;3.40;;
33475;SDS011;19814;48.224;11.422;2023-06-04T02:28:41;7.72;;;4.07;;
33475;SDS011;19814;48.224;11.422;2023-06-04T02:31:06;7.50;;;3.63;;
33475;SDS011;19814;48.224;11.422;2023-06-04T02:33:32;5.47;;;3.17;;
33475;SDS011;19814;48.224;11.422;2023-06-04T02:35:57;7.32;;;3.58;;
33475;SDS011;19814;48.224;11.422;2023-06-04T02:38:23;10.90;;;3.83;;
33475;SDS011;19814;48.224;11.422;2023-06-04T02:40:48;7.35;;;4.20;;
33475;SDS011;19814;48.224;11.422;2023-06-04T02:43:14;7.20;;;3.83;;
33475;SDS011;19814;48.224;11.422;2023-06-04T02:45:40;7.18;;;3.58;;
33475;SDS011;19814;48.224;11.422;2023-06-04T02:48:05;7.00;;;3.70;;
33475;SDS011;19814;48.224;11.422;2023-06-04T02:50:31;7.65;;;3.90;;
33475;SDS011;19814;48.224;11.422;2023-06-04T02:52:57;7.72;;;4.15;;
33475;SDS011;19814;48.224;11.422;2023-06-04T02:55:22;6.00;;;4.05;;
33475;SDS011;19814;48.224;11.422;2023-06-04T02:57:48;7.57;;;3.95;;
33475;SDS011;19814;48.224;11.422;2023-06-04T03:00:14;7.05;;;3.80;;
33475;SDS011;19814;48.224;11.422;2023-06-04T03:02:44;8.73;;;3.53;;
33475;SDS011;19814;48.224;11.422;2023-06-04T03:05:11;7.07;;;4.13;;
33475;SDS011;19814;48.224;11.422;2023-06-04T03:07:40;7.07;;;3.60;;
33475;SDS011;19814;48.224;11.422;2023-06-04T03:10:07;6.88;;;3.53;;
33475;SDS011;19814;48.224;11.422;2023-06-04T03:12:34;8.63;;;4.20;;
33475;SDS011;19814;48.224;11.422;2023-06-04T03:15:00;7.10;;;4.00;;
33475;SDS011;19814;48.224;11.422;2023-06-04T03:17:25;9.88;;;3.95;;
33475;SDS011;19814;48.224;11.422;2023-06-04T03:19:51;9.05;;;3.60;;
33475;SDS011;19814;48.224;11.422;2023-06-04T03:22:17;6.57;;;3.55;;
33475;SDS011;19814;48.224;11.422;2023-06-04T03:24:42;7.50;;;3.65;;
33475;SDS011;19814;48.224;11.422;2023-06-04T03:27:08;5.95;;;3.47;;
33475;SDS011;19814;48.224;11.422;2023-06-04T03:29:35;6.15;;;3.70;;
33475;SDS011;19814;48.224;11.422;2023-06-04T03:32:01;9.43;;;4.20;;
33475;SDS011;19814;48.224;11.422;2023-06-04T03:34:27;6.85;;;3.60;;
33475;SDS011;19814;48.224;11.422;2023-06-04T03:36:56;7.65;;;4.05;;
33475;SDS011;19814;48.224;11.422;2023-06-04T03:39:22;5.90;;;3.60;;
33475;SDS011;19814;48.224;11.422;2023-06-04T03:41:48;7.63;;;3.58;;
33475;SDS011;19814;48.224;11.422;2023-06-04T03:44:14;6.85;;;3.65;;
33475;SDS011;19814;48.224;11.422;2023-06-04T03:46:40;6.90;;;3.42;;
33475;SDS011;19814;48.224;11.422;2023-06-04T03:49:07;8.90;;;3.53;;
33475;SDS011;19814;48.224;11.422;2023-06-04T03:51:33;7.43;;;3.75;;
33475;SDS011;19814;48.224;11.422;2023-06-04T03:53:59;5.70;;;3.42;;
33475;SDS011;19814;48.224;11.422;2023-06-04T03:56:25;5.93;;;3.35;;
33475;SDS011;19814;48.224;11.422;2023-06-04T03:58:52;6.85;;;3.45;;
33475;SDS011;19814;48.224;11.422;2023-06-04T04:01:17;6.47;;;3.38;;
33475;SDS011;19814;48.224;11.422;2023-06-04T04:03:43;6.90;;;3.88;;
33475;SDS011;19814;48.224;11.422;2023-06-04T04:06:13;6.60;;;3.88;;
33475;SDS011;19814;48.224;11.422;2023-06-04T04:08:39;7.32;;;3.22;;
33475;SDS011;19814;48.224;11.422;2023-06-04T04:11:07;7.22;;;3.38;;
33475;SDS011;19814;48.224;11.422;2023-06-04T04:13:33;7.50;;;3.53;;
33475;SDS011;19814;48.224;11.422;2023-06-04T04:15:59;10.40;;;3.78;;
33475;SDS011;19814;48.224;11.422;2023-06-04T04:18:24;9.35;;;3.60;;
33475;SDS011;19814;48.224;11.422;2023-06-04T04:20:50;6.63;;;3.00;;
33475;SDS011;19814;48.224;11.422;2023-06-04T04:23:16;9.38;;;3.38;;
33475;SDS011;19814;48.224;11.422;2023-06-04T04:25:42;5.93;;;3.15;;
33475;SDS011;19814;48.224;11.422;2023-06-04T04:28:09;7.57;;;2.90;;
33475;SDS011;19814;48.224;11.422;2023-06-04T04:30:34;5.03;;;2.58;;
33475;SDS011;19814;48.224;11.422;2023-06-04T04:33:00;5.63;;;2.95;;
33475;SDS011;19814;48.224;11.422;2023-06-04T04:35:27;5.90;;;3.35;;
33475;SDS011;19814;48.224;11.422;2023-06-04T04:37:53;6.53;;;3.20;;
33475;SDS011;19814;48.224;11.422;2023-06-04T04:40:19;6.75;;;3.10;;
33475;SDS011;19814;48.224;11.422;2023-06-04T04:42:45;5.88;;;3.13;;
33475;SDS011;19814;48.224;11.422;2023-06-04T04:45:11;8.02;;;3.42;;
33475;SDS011;19814;48.224;11.422;2023-06-04T04:47:37;7.10;;;3.35;;
33475;SDS011;19814;48.224;11.422;2023-06-04T04:50:03;5.00;;;2.75;;
33475;SDS011;19814;48.224;11.422;2023-06-04T04:52:29;6.95;;;2.88;;
33475;SDS011;19814;48.224;11.422;2023-06-04T04:54:55;5.88;;;3.00;;
33475;SDS011;19814;48.224;11.422;2023-06-04T04:57:22;6.90;;;3.22;;
33475;SDS011;19814;48.224;11.422;2023-06-04T04:59:48;7.30;;;2.95;;
33475;SDS011;19814;48.224;11.422;2023-06-04T05:02:14;6.03;;;2.80;;
33475;SDS011;19814;48.224;11.422;2023-06-04T05:04:40;7.22;;;3.00;;
33475;SDS011;19814;48.224;11.422;2023-06-04T05:07:06;6.13;;;3.50;;
33475;SDS011;19814;48.224;11.422;2023-06-04T05:09:31;4.95;;;2.60;;
33475;SDS011;19814;48.224;11.422;2023-06-04T05:11:57;7.35;;;2.70;;
33475;SDS011;19814;48.224;11.422;2023-06-04T05:14:22;4.88;;;3.05;;
33475;SDS011;19814;48.224;11.422;2023-06-04T05:16:48;5.28;;;2.83;;
33475;SDS011;19814;48.224;11.422;2023-06-04T05:19:15;5.22;;;2.53;;
33475;SDS011;19814;48.224;11.422;2023-06-04T05:21:41;6.93;;;2.83;;
33475;SDS011;19814;48.224;11.422;2023-06-04T05:24:09;5.60;;;2.97;;
33475;SDS011;19814;48.224;11.422;2023-06-04T05:26:35;5.72;;;2.80;;
33475;SDS011;19814;48.224;11.422;2023-06-04T05:29:01;5.25;;;2.65;;
33475;SDS011;19814;48.224;11.422;2023-06-04T05:31:26;4.72;;;2.65;;
33475;SDS011;19814;48.224;11.422;2023-06-04T05:33:52;6.25;;;2.67;;
33475;SDS011;19814;48.224;11.422;2023-06-04T05:36:19;6.22;;;2.55;;
33475;SDS011;19814;48.224;11.422;2023-06-04T05:38:44;5.38;;;2.85;;
33475;SDS011;19814;48.224;11.422;2023-06-04T05:41:10;8.65;;;2.67;;
33475;SDS011;19814;48.224;11.422;2023-06-04T05:43:36;4.43;;;2.42;;
33475;SDS011;19814;48.224;11.422;2023-06-04T05:46:02;5.32;;;2.60;;
33475;SDS011;19814;48.224;11.422;2023-06-04T05:48:27;5.28;;;2.33;;
33475;SDS011;19814;48.224;11.422;2023-06-04T05:50:53;4.97;;;2.42;;
33475;SDS011;19814;48.224;11.422;2023-06-04T05:53:18;5.53;;;2.20;;
33475;SDS011;19814;48.224;11.422;2023-06-04T05:55:44;6.78;;;2.20;;
33475;SDS011;19814;48.224;11.422;2023-06-04T05:58:09;5.82;;;2.30;;
33475;SDS011;19814;48.224;11.422;2023-06-04T06:00:35;4.20;;;2.10;;
33475;SDS011;19814;48.224;11.422;2023-06-04T06:03:00;5.20;;;2.47;;
33475;SDS011;19814;48.224;11.422;2023-06-04T06:05:26;4.80;;;2.20;;
33475;SDS011;19814;48.224;11.422;2023-06-04T06:07:52;6.25;;;2.53;;
33475;SDS011;19814;48.224;11.422;2023-06-04T06:10:17;5.13;;;2.47;;
33475;SDS011;19814;48.224;11.422;2023-06-04T06:12:43;6.45;;;2.75;;
33475;SDS011;19814;48.224;11.422;2023-06-04T06:15:09;5.10;;;2.45;;
33475;SDS011;19814;48.224;11.422;2023-06-04T06:17:35;5.25;;;2.20;;
33475;SDS011;19814;48.224;11.422;2023-06-04T06:20:00;9.05;;;2.60;;
33475;SDS011;19814;48.224;11.422;2023-06-04T06:22:30;3.65;;;2.00;;
33475;SDS011;19814;48.224;11.422;2023-06-04T06:24:56;5.00;;;2.25;;
33475;SDS011;19814;48.224;11.422;2023-06-04T06:27:23;3.72;;;1.70;;
33475;SDS011;19814;48.224;11.422;2023-06-04T06:29:48;4.22;;;2.55;;
33475;SDS011;19814;48.224;11.422;2023-06-04T06:32:14;10.00;;;2.50;;
33475;SDS011;19814;48.224;11.422;2023-06-04T06:34:39;6.85;;;2.15;;
33475;SDS011;19814;48.224;11.422;2023-06-04T06:37:06;4.40;;;2.20;;
33475;SDS011;19814;48.224;11.422;2023-06-04T06:39:31;6.47;;;2.03;;
33475;SDS011;19814;48.224;11.422;2023-06-04T06:41:57;5.30;;;2.28;;
33475;SDS011;19814;48.224;11.422;2023-06-04T06:44:22;4.50;;;2.30;;
33475;SDS011;19814;48.224;11.422;2023-06-04T06:46:48;5.85;;;2.15;;
33475;SDS011;19814;48.224;11.422;2023-06-04T06:49:14;5.28;;;2.35;;
33475;SDS011;19814;48.224;11.422;2023-06-04T06:51:40;4.82;;;2.10;;
33475;SDS011;19814;48.224;11.422;2023-06-04T06:54:08;4.20;;;1.98;;
33475;SDS011;19814;48.224;11.422;2023-06-04T06:56:34;6.45;;;1.98;;
33475;SDS011;19814;48.224;11.422;2023-06-04T06:59:00;3.88;;;1.98;;
33475;SDS011;19814;48.224;11.422;2023-06-04T07:01:25;5.72;;;2.15;;
33475;SDS011;19814;48.224;11.422;2023-06-04T07:03:51;5.32;;;2.25;;
33475;SDS011;19814;48.224;11.422;2023-06-04T07:06:17;4.00;;;2.00;;
33475;SDS011;19814;48.224;11.422;2023-06-04T07:08:42;4.88;;;2.33;;
33475;SDS011;19814;48.224;11.422;2023-06-04T07:11:08;3.78;;;2.00;;
33475;SDS011;19814;48.224;11.422;2023-06-04T07:13:37;4.60;;;1.98;;
33475;SDS011;19814;48.224;11.422;2023-06-04T07:16:05;9.02;;;2.50;;
33475;SDS011;19814;48.224;11.422;2023-06-04T07:18:31;4.93;;;2.80;;
33475;SDS011;19814;48.224;11.422;2023-06-04T07:20:57;3.08;;;1.73;;
33475;SDS011;19814;48.224;11.422;2023-06-04T07:23:23;5.13;;;2.30;;
33475;SDS011;19814;48.224;11.422;2023-06-04T07:25:49;6.05;;;2.45;;
33475;SDS011;19814;48.224;11.422;2023-06-04T07:28:15;4.75;;;2.40;;
33475;SDS011;19814;48.224;11.422;2023-06-04T07:30:40;4.28;;;2.08;;
33475;SDS011;19814;48.224;11.422;2023-06-04T07:33:06;5.72;;;2.15;;
33475;SDS011;19814;48.224;11.422;2023-06-04T07:35:31;2.95;;;1.63;;
33475;SDS011;19814;48.224;11.422;2023-06-04T07:37:57;4.55;;;2.05;;
33475;SDS011;19814;48.224;11.422;2023-06-04T07:40:23;4.07;;;1.85;;
33475;SDS011;19814;48.224;11.422;2023-06-04T07:42:48;5.15;;;2.28;;
33475;SDS011;19814;48.224;11.422;2023-06-04T07:45:14;5.40;;;2.17;;
33475;SDS011;19814;48.224;11.422;2023-06-04T07:47:40;4.15;;;2.17;;
33475;SDS011;19814;48.224;11.422;2023-06-04T07:50:08;8.27;;;2.67;;
33475;SDS011;19814;48.224;11.422;2023-06-04T07:52:34;9.93;;;2.35;;
33475;SDS011;19814;48.224;11.422;2023-06-04T07:55:00;4.47;;;2.33;;
33475;SDS011;19814;48.224;11.422;2023-06-04T07:57:27;3.47;;;1.98;;
33475;SDS011;19814;48.224;11.422;2023-06-04T07:59:52;4.30;;;2.10;;
33475;SDS011;19814;48.224;11.422;2023-06-04T08:02:18;5.38;;;2.00;;
33475;SDS011;19814;48.224;11.422;2023-06-04T08:04:44;4.70;;;2.13;;
33475;SDS011;19814;48.224;11.422;2023-06-04T08:07:11;4.15;;;2.28;;
33475;SDS011;19814;48.224;11.422;2023-06-04T08:09:37;5.28;;;2.25;;
33475;SDS011;19814;48.224;11.422;2023-06-04T08:12:02;4.20;;;2.15;;
33475;SDS011;19814;48.224;11.422;2023-06-04T08:14:28;5.10;;;2.30;;
33475;SDS011;19814;48.224;11.422;2023-06-04T08:16:53;4.80;;;2.55;;
33475;SDS011;19814;48.224;11.422;2023-06-04T08:19:19;5.88;;;2.25;;
33475;SDS011;19814;48.224;11.422;2023-06-04T08:21:45;4.68;;;2.10;;
33475;SDS011;19814;48.224;11.422;2023-06-04T08:24:12;4.22;;;1.92;;
33475;SDS011;19814;48.224;11.422;2023-06-04T08:26:38;4.35;;;2.17;;
33475;SDS011;19814;48.224;11.422;2023-06-04T08:29:04;4.45;;;1.90;;
33475;SDS011;19814;48.224;11.422;2023-06-04T08:31:30;5.53;;;2.00;;
33475;SDS011;19814;48.224;11.422;2023-06-04T08:33:56;4.40;;;2.00;;
33475;SDS011;19814;48.224;11.422;2023-06-04T08:36:22;5.25;;;2.08;;
33475;SDS011;19814;48.224;11.422;2023-06-04T08:38:47;4.32;;;1.90;;
33475;SDS011;19814;48.224;11.422;2023-06-04T08:41:17;5.07;;;2.00;;
33475;SDS011;19814;48.224;11.422;2023-06-04T08:43:56;4.13;;;1.92;;
33475;SDS011;19814;48.224;11.422;2023-06-04T08:46:22;4.10;;;2.15;;
33475;SDS011;19814;48.224;11.422;2023-06-04T08:48:49;3.85;;;2.05;;
33475;SDS011;19814;48.224;11.422;2023-06-04T08:51:15;4.53;;;2.28;;
33475;SDS011;19814;48.224;11.422;2023-06-04T08:53:41;3.35;;;1.70;;
33475;SDS011;19814;48.224;11.422;2023-06-04T08:56:07;3.13;;;1.95;;
33475;SDS011;19814;48.224;11.422;2023-06-04T08:58:33;4.30;;;2.00;;
33475;SDS011;19814;48.224;11.422;2023-06-04T09:01:00;3.95;;;1.88;;
33475;SDS011;19814;48.224;11.422;2023-06-04T09:03:26;3.22;;;1.88;;
33475;SDS011;19814;48.224;11.422;2023-06-04T09:05:56;4.55;;;2.20;;
33475;SDS011;19814;48.224;11.422;2023-06-04T09:08:22;3.60;;;2.28;;
33475;SDS011;19814;48.224;11.422;2023-06-04T09:10:49;3.08;;;1.55;;
33475;SDS011;19814;48.224;11.422;2023-06-04T09:13:18;3.53;;;1.95;;
33475;SDS011;19814;48.224;11.422;2023-06-04T09:15:46;5.03;;;2.03;;
33475;SDS011;19814;48.224;11.422;2023-06-04T09:18:24;3.60;;;1.58;;
33475;SDS011;19814;48.224;11.422;2023-06-04T09:20:59;3.30;;;1.70;;
33475;SDS011;19814;48.224;11.422;2023-06-04T09:23:26;9.48;;;2.40;;
33475;SDS011;19814;48.224;11.422;2023-06-04T09:25:52;3.65;;;2.28;;
33475;SDS011;19814;48.224;11.422;2023-06-04T09:28:18;4.72;;;1.60;;
33475;SDS011;19814;48.224;11.422;2023-06-04T09:30:52;5.65;;;2.08;;
33475;SDS011;19814;48.224;11.422;2023-06-04T09:33:18;3.47;;;1.70;;
33475;SDS011;19814;48.224;11.422;2023-06-04T09:35:56;4.95;;;1.60;;
33475;SDS011;19814;48.224;11.422;2023-06-04T09:38:22;3.22;;;1.67;;
33475;SDS011;19814;48.224;11.422;2023-06-04T09:40:48;5.05;;;1.80;;
33475;SDS011;19814;48.224;11.422;2023-06-04T09:43:21;3.30;;;1.63;;
33475;SDS011;19814;48.224;11.422;2023-06-04T09:45:48;4.00;;;1.95;;
33475;SDS011;19814;48.224;11.422;2023-06-04T09:48:20;4.63;;;1.73;;
33475;SDS011;19814;48.224;11.422;2023-06-04T09:50:46;5.88;;;2.40;;
33475;SDS011;19814;48.224;11.422;2023-06-04T09:53:15;3.97;;;2.03;;
33475;SDS011;19814;48.224;11.422;2023-06-04T09:55:42;3.92;;;1.80;;
33475;SDS011;19814;48.224;11.422;2023-06-04T09:58:08;5.60;;;1.88;;
33475;SDS011;19814;48.224;11.422;2023-06-04T10:00:36;5.22;;;1.80;;
33475;SDS011;19814;48.224;11.422;2023-06-04T10:03:06;5.38;;;2.10;;
33475;SDS011;19814;48.224;11.422;2023-06-04T10:05:37;3.30;;;1.50;;
33475;SDS011;19814;48.224;11.422;2023-06-04T10:08:04;6.03;;;2.20;;
33475;SDS011;19814;48.224;11.422;2023-06-04T10:10:30;3.47;;;1.70;;
33475;SDS011;19814;48.224;11.422;2023-06-04T10:13:05;3.97;;;2.10;;
33475;SDS011;19814;48.224;11.422;2023-06-04T10:15:35;2.80;;;1.60;;
33475;SDS011;19814;48.224;11.422;2023-06-04T10:18:01;5.72;;;1.83;;
33475;SDS011;19814;48.224;11.422;2023-06-04T10:20:27;4.43;;;2.15;;
33475;SDS011;19814;48.224;11.422;2023-06-04T10:22:53;3.55;;;1.95;;
33475;SDS011;19814;48.224;11.422;2023-06-04T10:25:20;4.38;;;2.25;;
33475;SDS011;19814;48.224;11.422;2023-06-04T10:27:46;7.18;;;2.33;;
33475;SDS011;19814;48.224;11.422;2023-06-04T10:30:12;4.35;;;2.22;;
33475;SDS011;19814;48.224;11.422;2023-06-04T10:32:38;4.03;;;2.05;;
33475;SDS011;19814;48.224;11.422;2023-06-04T10:35:07;4.10;;;2.10;;
33475;SDS011;19814;48.224;11.422;2023-06-04T10:37:33;5.32;;;2.33;;
33475;SDS011;19814;48.224;11.422;2023-06-04T10:39:59;3.58;;;2.10;;
33475;SDS011;19814;48.224;11.422;2023-06-04T10:42:25;3.92;;;1.98;;
33475;SDS011;19814;48.224;11.422;2023-06-04T10:44:52;3.50;;;2.17;;
33475;SDS011;19814;48.224;11.422;2023-06-04T10:47:25;4.78;;;2.45;;
33475;SDS011;19814;48.224;11.422;2023-06-04T10:49:52;4.75;;;2.63;;
33475;SDS011;19814;48.224;11.422;2023-06-04T10:52:18;6.57;;;2.15;;
33475;SDS011;19814;48.224;11.422;2023-06-04T10:54:45;4.20;;;1.83;;
33475;SDS011;19814;48.224;11.422;2023-06-04T10:57:16;5.45;;;2.20;;
33475;SDS011;19814;48.224;11.422;2023-06-04T10:59:58;5.25;;;2.58;;
33475;SDS011;19814;48.224;11.422;2023-06-04T11:02:25;5.55;;;2.00;;
33475;SDS011;19814;48.224;11.422;2023-06-04T11:05:01;6.68;;;2.42;;
33475;SDS011;19814;48.224;11.422;2023-06-04T11:07:40;4.40;;;2.13;;
33475;SDS011;19814;48.224;11.422;2023-06-04T11:10:06;4.80;;;2.47;;
33475;SDS011;19814;48.224;11.422;2023-06-04T11:12:40;4.88;;;2.30;;
33475;SDS011;19814;48.224;11.422;2023-06-04T11:15:07;4.03;;;2.20;;
33475;SDS011;19814;48.224;11.422;2023-06-04T11:17:33;3.85;;;2.28;;
33475;SDS011;19814;48.224;11.422;2023-06-04T11:19:58;3.15;;;2.13;;
33475;SDS011;19814;48.224;11.422;2023-06-04T11:22:25;3.92;;;1.85;;
33475;SDS011;19814;48.224;11.422;2023-06-04T11:24:56;4.40;;;2.03;;
33475;SDS011;19814;48.224;11.422;2023-06-04T11:27:24;3.05;;;1.98;;
33475;SDS011;19814;48.224;11.422;2023-06-04T11:29:53;3.97;;;2.22;;
33475;SDS011;19814;48.224;11.422;2023-06-04T11:32:22;4.18;;;2.38;;
33475;SDS011;19814;48.224;11.422;2023-06-04T11:37:14;4.45;;;2.10;;
33475;SDS011;19814;48.224;11.422;2023-06-04T11:39:40;5.80;;;2.13;;
33475;SDS011;19814;48.224;11.422;2023-06-04T11:42:08;4.65;;;2.47;;
33475;SDS011;19814;48.224;11.422;2023-06-04T11:44:34;4.28;;;2.30;;
33475;SDS011;19814;48.224;11.422;2023-06-04T11:46:59;5.68;;;2.33;;
33475;SDS011;19814;48.224;11.422;2023-06-04T11:49:25;4.03;;;2.40;;
33475;SDS011;19814;48.224;11.422;2023-06-04T11:51:53;3.80;;;2.10;;
33475;SDS011;19814;48.224;11.422;2023-06-04T11:54:19;4.57;;;2.22;;
33475;SDS011;19814;48.224;11.422;2023-06-04T11:56:46;3.90;;;1.90;;
33475;SDS011;19814;48.224;11.422;2023-06-04T11:59:14;6.35;;;1.98;;
33475;SDS011;19814;48.224;11.422;2023-06-04T12:01:42;5.85;;;2.65;;
33475;SDS011;19814;48.224;11.422;2023-06-04T12:04:29;3.83;;;2.22;;
33475;SDS011;19814;48.224;11.422;2023-06-04T12:06:56;5.43;;;2.63;;
33475;SDS011;19814;48.224;11.422;2023-06-04T12:09:24;3.83;;;2.53;;
33475;SDS011;19814;48.224;11.422;2023-06-04T12:14:26;3.60;;;2.10;;
33475;SDS011;19814;48.224;11.422;2023-06-04T12:16:55;4.38;;;2.00;;
33475;SDS011;19814;48.224;11.422;2023-06-04T12:19:21;4.72;;;2.47;;
33475;SDS011;19814;48.224;11.422;2023-06-04T12:21:46;6.25;;;2.20;;
33475;SDS011;19814;48.224;11.422;2023-06-04T12:24:12;5.05;;;2.60;;
33475;SDS011;19814;48.224;11.422;2023-06-04T12:26:39;5.68;;;2.50;;
33475;SDS011;19814;48.224;11.422;2023-06-04T12:29:15;4.85;;;2.40;;
33475;SDS011;19814;48.224;11.422;2023-06-04T12:31:43;5.18;;;2.13;;
33475;SDS011;19814;48.224;11.422;2023-06-04T12:34:10;4.10;;;2.13;;
33475;SDS011;19814;48.224;11.422;2023-06-04T12:36:36;4.20;;;2.63;;
33475;SDS011;19814;48.224;11.422;2023-06-04T12:39:03;4.55;;;2.22;;
33475;SDS011;19814;48.224;11.422;2023-06-04T12:41:30;3.60;;;2.08;;
33475;SDS011;19814;48.224;11.422;2023-06-04T12:43:56;4.15;;;2.20;;
33475;SDS011;19814;48.224;11.422;2023-06-04T12:46:22;5.15;;;2.30;;
33475;SDS011;19814;48.224;11.422;2023-06-04T12:48:49;4.43;;;2.20;;
33475;SDS011;19814;48.224;11.422;2023-06-04T12:51:16;4.38;;;2.30;;
33475;SDS011;19814;48.224;11.422;2023-06-04T12:53:41;5.40;;;2.13;;
33475;SDS011;19814;48.224;11.422;2023-06-04T12:56:07;5.50;;;2.53;;
33475;SDS011;19814;48.224;11.422;2023-06-04T12:58:35;4.13;;;2.10;;
33475;SDS011;19814;48.224;11.422;2023-06-04T13:01:01;4.80;;;2.53;;
33475;SDS011;19814;48.224;11.422;2023-06-04T13:03:27;5.15;;;2.40;;
33475;SDS011;19814;48.224;11.422;2023-06-04T13:05:54;4.43;;;2.17;;
33475;SDS011;19814;48.224;11.422;2023-06-04T13:08:20;3.65;;;2.10;;
33475;SDS011;19814;48.224;11.422;2023-06-04T13:10:46;3.22;;;2.03;;
33475;SDS011;19814;48.224;11.422;2023-06-04T13:13:12;3.83;;;2.05;;
33475;SDS011;19814;48.224;11.422;2023-06-04T13:15:40;5.00;;;2.30;;
33475;SDS011;19814;48.224;11.422;2023-06-04T13:18:06;3.50;;;2.28;;
33475;SDS011;19814;48.224;11.422;2023-06-04T13:20:32;5.20;;;2.10;;
33475;SDS011;19814;48.224;11.422;2023-06-04T13:22:57;3.55;;;2.17;;
33475;SDS011;19814;48.224;11.422;2023-06-04T13:25:23;6.60;;;2.55;;
33475;SDS011;19814;48.224;11.422;2023-06-04T13:27:49;6.03;;;1.92;;
33475;SDS011;19814;48.224;11.422;2023-06-04T13:30:14;4.35;;;2.28;;
33475;SDS011;19814;48.224;11.422;2023-06-04T13:32:40;5.28;;;1.90;;
33475;SDS011;19814;48.224;11.422;2023-06-04T13:35:06;4.13;;;2.50;;
33475;SDS011;19814;48.224;11.422;2023-06-04T13:37:32;6.15;;;2.65;;
33475;SDS011;19814;48.224;11.422;2023-06-04T13:39:57;4.20;;;2.13;;
33475;SDS011;19814;48.224;11.422;2023-06-04T13:42:23;7.35;;;2.30;;
33475;SDS011;19814;48.224;11.422;2023-06-04T13:44:48;5.20;;;2.33;;
33475;SDS011;19814;48.224;11.422;2023-06-04T13:47:14;6.70;;;2.35;;
33475;SDS011;19814;48.224;11.422;2023-06-04T13:49:40;5.65;;;2.30;;
33475;SDS011;19814;48.224;11.422;2023-06-04T13:52:07;5.18;;;2.40;;
33475;SDS011;19814;48.224;11.422;2023-06-04T13:54:32;6.55;;;2.10;;
33475;SDS011;19814;48.224;11.422;2023-06-04T13:57:00;4.05;;;2.17;;
33475;SDS011;19814;48.224;11.422;2023-06-04T13:59:27;4.80;;;2.53;;
33475;SDS011;19814;48.224;11.422;2023-06-04T14:01:52;7.47;;;2.47;;
33475;SDS011;19814;48.224;11.422;2023-06-04T14:04:18;4.10;;;2.40;;
33475;SDS011;19814;48.224;11.422;2023-06-04T14:06:44;4.35;;;2.55;;
33475;SDS011;19814;48.224;11.422;2023-06-04T14:09:09;6.80;;;2.85;;
33475;SDS011;19814;48.224;11.422;2023-06-04T14:11:38;6.80;;;2.25;;
33475;SDS011;19814;48.224;11.422;2023-06-04T14:14:04;4.93;;;2.50;;
33475;SDS011;19814;48.224;11.422;2023-06-04T14:16:29;4.40;;;2.10;;
33475;SDS011;19814;48.224;11.422;2023-06-04T14:18:55;3.45;;;2.00;;
33475;SDS011;19814;48.224;11.422;2023-06-04T14:21:20;3.97;;;2.25;;
33475;SDS011;19814;48.224;11.422;2023-06-04T14:23:47;6.20;;;2.13;;
33475;SDS011;19814;48.224;11.422;2023-06-04T14:26:12;3.08;;;2.03;;
33475;SDS011;19814;48.224;11.422;2023-06-04T14:28:38;4.20;;;2.10;;
33475;SDS011;19814;48.224;11.422;2023-06-04T14:31:04;5.43;;;2.25;;
33475;SDS011;19814;48.224;11.422;2023-06-04T14:33:29;5.95;;;2.35;;
33475;SDS011;19814;48.224;11.422;2023-06-04T14:35:55;3.92;;;2.45;;
33475;SDS011;19814;48.224;11.422;2023-06-04T14:38:21;7.40;;;2.78;;